Time;durP1;ratioP1;P1;durP2;ratioP2;P2;SDS_P1;SDS_P2;PMS_P1;PMS_P2;Temp;Humidity;BMP_temperature;BMP_pressure;BME280_temperature;BME280_humidity;BME280_pressure;Samples;Min_cycle;Max_cycle;Signal;HPM_P1;HPM_P2
2022/03/16 00:02:21;;;;;;;32.77;20.83;;;;;;;-145.18;100.00;46664.31;5072172;28;20044;-65
2022/03/16 00:04:51;;;;;;;31.73;21.10;;;;;;;-145.18;100.00;46644.78;5071446;28;20037;-65
2022/03/16 00:07:17;;;;;;;34.80;21.53;;;;;;;-145.18;100.00;46660.41;5071829;28;20270;-65
2022/03/16 00:09:43;;;;;;;42.37;22.17;;;;;;;-145.18;100.00;46656.50;5072332;28;20364;-65
2022/03/16 00:12:09;;;;;;;34.57;21.47;;;;;;;-145.18;100.00;46652.59;5071674;28;20356;-65
2022/03/16 00:14:35;;;;;;;32.80;21.10;;;;;;;-145.18;100.00;46640.88;5071091;28;20033;-65
2022/03/16 00:17:01;;;;;;;32.40;20.47;;;;;;;-145.18;100.00;46633.06;5071641;28;20807;-65
2022/03/16 00:19:26;;;;;;;32.97;20.93;;;;;;;-145.18;100.00;46615.47;5072232;28;20273;-67
2022/03/16 00:21:52;;;;;;;36.60;21.47;;;;;;;-145.18;100.00;46623.28;5070892;28;20040;-67
2022/03/16 00:24:17;;;;;;;40.17;22.27;;;;;;;-145.18;100.00;46636.94;5071047;28;20127;-65
2022/03/16 00:26:43;;;;;;;33.70;21.53;;;;;;;-145.18;100.00;46652.59;5071228;28;20360;-67
2022/03/16 00:29:08;;;;;;;38.90;22.17;;;;;;;-145.18;100.00;46660.41;5071685;28;20049;-65
2022/03/16 00:31:34;;;;;;;40.67;24.17;;;;;;;-145.18;100.00;46640.88;5071913;28;20060;-65
2022/03/16 00:34:00;;;;;;;43.47;24.57;;;;;;;-145.18;100.00;46664.31;5071274;28;20052;-65
2022/03/16 00:36:25;;;;;;;50.27;28.73;;;;;;;-145.18;100.00;46676.03;5070756;28;20404;-65
2022/03/16 00:38:50;;;;;;;58.63;31.37;;;;;;;-145.18;100.00;46674.06;5072124;28;20266;-65
2022/03/16 00:41:17;;;;;;;61.83;31.67;;;;;;;-145.18;100.00;46677.97;5070803;28;20040;-65
2022/03/16 00:43:44;;;;;;;54.77;28.70;;;;;;;-145.18;100.00;46681.88;5070332;28;20067;-65
2022/03/16 00:46:09;;;;;;;56.70;30.73;;;;;;;-145.18;100.00;46679.94;5071759;28;20269;-65
2022/03/16 00:48:35;;;;;;;53.40;27.73;;;;;;;-145.18;100.00;46681.88;5071600;28;20833;-65
2022/03/16 00:51:01;;;;;;;49.97;27.20;;;;;;;-145.18;100.00;46676.03;5070286;28;20412;-65
2022/03/16 00:53:26;;;;;;;52.87;28.60;;;;;;;-145.18;100.00;46679.94;5071393;28;20032;-65
2022/03/16 00:55:52;;;;;;;50.87;27.57;;;;;;;-145.18;100.00;46693.59;5070890;28;20112;-65
2022/03/16 00:58:17;;;;;;;52.43;28.17;;;;;;;-145.18;100.00;46687.75;5070236;28;20039;-65
2022/03/16 01:00:43;;;;;;;52.97;28.07;;;;;;;-145.18;100.00;46685.78;5071553;28;20041;-65
2022/03/16 01:03:08;;;;;;;56.70;31.30;;;;;;;-145.18;100.00;46695.56;5070975;28;20052;-65
2022/03/16 01:05:33;;;;;;;60.70;31.97;;;;;;;-145.18;100.00;46691.66;5053386;28;20028;-65
2022/03/16 01:07:59;;;;;;;58.53;30.57;;;;;;;-145.18;100.00;46695.56;5069422;28;20616;-65
2022/03/16 01:10:24;;;;;;;61.73;32.60;;;;;;;-145.18;100.00;46689.69;5071521;28;20040;-65
2022/03/16 01:12:50;;;;;;;62.43;33.03;;;;;;;-145.18;100.00;46693.59;5070715;28;20032;-65
2022/03/16 01:15:15;;;;;;;73.97;36.83;;;;;;;-145.18;100.00;46683.84;5071049;28;20119;-67
2022/03/16 01:17:40;;;;;;;70.87;35.20;;;;;;;-145.18;100.00;46691.66;5071041;28;20045;-65
2022/03/16 01:20:07;;;;;;;60.87;33.13;;;;;;;-145.18;100.00;46685.78;5071239;28;20040;-65
2022/03/16 01:22:32;;;;;;;69.95;34.67;;;;;;;-145.18;100.00;46683.84;5071050;28;20037;-65
2022/03/16 01:24:58;;;;;;;71.70;36.13;;;;;;;-145.18;100.00;46681.88;5070802;28;20027;-65
2022/03/16 01:27:23;;;;;;;70.47;36.00;;;;;;;-145.18;100.00;46681.88;5069538;28;20032;-67
2022/03/16 01:29:48;;;;;;;70.07;35.60;;;;;;;-145.18;100.00;46679.94;5070792;28;20134;-67
2022/03/16 01:32:14;;;;;;;69.40;34.50;;;;;;;-145.18;100.00;46685.78;5070554;28;20032;-67
2022/03/16 01:34:39;;;;;;;64.60;33.30;;;;;;;-145.18;100.00;46677.97;5069362;28;20112;-68
2022/03/16 01:37:05;;;;;;;63.00;33.40;;;;;;;-145.18;100.00;46676.03;5070104;28;20473;-67
2022/03/16 01:39:31;;;;;;;66.25;33.33;;;;;;;-145.18;100.00;46674.06;5071044;28;20063;-67
2022/03/16 01:41:57;;;;;;;65.67;32.93;;;;;;;-145.18;100.00;46676.03;5070175;28;20044;-66
2022/03/16 01:44:45;;;;;;;69.00;34.57;;;;;;;-145.18;100.00;46679.94;5070903;28;20273;-67
2022/03/16 01:47:12;;;;;;;69.13;34.40;;;;;;;-145.18;100.00;46683.84;5068869;28;20107;-66
2022/03/16 01:49:38;;;;;;;68.78;35.95;;;;;;;-145.18;100.00;46681.88;5059504;28;20297;-65
2022/03/16 01:52:04;;;;;;;65.47;34.57;;;;;;;-145.18;100.00;46677.97;5050290;28;20392;-65
2022/03/16 01:54:29;;;;;;;69.50;34.73;;;;;;;-145.18;100.00;46677.97;5050699;28;20032;-65
2022/03/16 01:56:55;;;;;;;65.83;33.97;;;;;;;-145.18;100.00;46677.97;5049884;28;20482;-67
2022/03/16 01:59:21;;;;;;;67.87;35.07;;;;;;;-145.18;100.00;46679.94;5050189;28;20114;-65
2022/03/16 02:01:46;;;;;;;62.80;34.77;;;;;;;-145.18;100.00;46676.03;5167021;22;20095;-66
2022/03/16 02:04:11;;;;;;;65.87;36.13;;;;;;;-145.18;100.00;46677.97;5012480;28;20041;-66
2022/03/16 02:06:37;;;;;;;75.20;38.23;;;;;;;-145.18;100.00;46670.16;5015140;28;20577;-66
2022/03/16 02:09:02;;;;;;;68.80;37.00;;;;;;;-145.18;100.00;46670.16;5010416;28;20061;-66
2022/03/16 02:11:27;;;;;;;68.53;36.10;;;;;;;-145.18;100.00;46674.06;5010811;28;20046;-66
2022/03/16 02:13:53;;;;;;;69.33;36.37;;;;;;;-145.18;100.00;46668.22;5010299;28;20115;-66
2022/03/16 02:16:19;;;;;;;70.93;36.43;;;;;;;-145.18;100.00;46670.16;5010991;28;20034;-66
2022/03/16 02:18:44;;;;;;;68.57;36.60;;;;;;;-145.18;100.00;46670.16;5010577;28;20077;-66
2022/03/16 02:21:12;;;;;;;72.90;35.77;;;;;;;-145.18;100.00;46674.06;5011042;28;20498;-66
2022/03/16 02:23:38;;;;;;;67.53;34.80;;;;;;;-145.18;100.00;46676.03;5010223;28;20061;-66
2022/03/16 02:26:03;;;;;;;65.03;34.63;;;;;;;-145.18;100.00;46670.16;5010744;28;20494;-66
2022/03/16 02:28:29;;;;;;;65.13;34.80;;;;;;;-145.18;100.00;46677.97;5010398;28;20049;-66
2022/03/16 02:30:55;;;;;;;61.20;33.43;;;;;;;-145.18;100.00;46668.22;5010550;28;20064;-66
2022/03/16 02:33:21;;;;;;;59.40;33.70;;;;;;;-145.18;100.00;46668.22;5010453;28;20625;-65
2022/03/16 02:35:47;;;;;;;56.83;31.90;;;;;;;-145.18;100.00;46670.16;5010360;28;20275;-66
2022/03/16 02:38:13;;;;;;;61.08;32.92;;;;;;;-145.18;100.00;46672.13;5010188;28;20030;-66
2022/03/16 02:40:38;;;;;;;64.80;32.20;;;;;;;-145.18;100.00;46666.25;5010533;28;20037;-66
2022/03/16 02:43:04;;;;;;;58.67;30.57;;;;;;;-145.18;100.00;46668.22;5010420;28;20752;-66
2022/03/16 02:45:30;;;;;;;64.00;34.87;;;;;;;-145.18;100.00;46674.06;5010808;28;20474;-66
2022/03/16 02:47:55;;;;;;;57.37;31.57;;;;;;;-145.18;100.00;46670.16;5018398;28;20029;-66
2022/03/16 02:50:21;;;;;;;58.50;31.83;;;;;;;-145.18;100.00;46674.06;5030423;28;20512;-66
2022/03/16 02:52:47;;;;;;;59.33;29.93;;;;;;;-145.18;100.00;46676.03;5029623;28;20098;-66
2022/03/16 02:55:13;;;;;;;57.33;31.38;;;;;;;-145.18;100.00;46672.13;5030215;28;20026;-65
2022/03/16 02:57:39;;;;;;;58.60;31.47;;;;;;;-145.18;100.00;46670.16;5028234;28;20036;-65
2022/03/16 03:00:07;;;;;;;57.07;31.37;;;;;;;-145.18;100.00;46672.13;5030382;28;20055;-65
2022/03/16 03:02:33;;;;;;;54.63;29.92;;;;;;;-145.18;100.00;46666.25;5029098;28;20583;-66
2022/03/16 03:04:58;;;;;;;60.80;30.10;;;;;;;-145.18;100.00;46666.25;5030433;28;20066;-66
2022/03/16 03:07:24;;;;;;;54.10;29.50;;;;;;;-145.18;100.00;46670.16;5029731;28;20069;-65
2022/03/16 03:09:49;;;;;;;59.10;32.23;;;;;;;-145.18;100.00;46670.16;5029971;28;20120;-66
2022/03/16 03:12:15;;;;;;;59.73;32.83;;;;;;;-145.18;100.00;46670.16;5030942;28;20532;-65
2022/03/16 03:14:41;;;;;;;55.43;30.33;;;;;;;-145.18;100.00;46668.22;5034036;28;20025;-66
2022/03/16 03:17:06;;;;;;;59.53;31.87;;;;;;;-145.18;100.00;46668.22;5033356;28;20044;-66
2022/03/16 03:19:32;;;;;;;61.33;32.03;;;;;;;-145.18;100.00;46668.22;5032650;28;20048;-66
2022/03/16 03:21:57;;;;;;;56.57;32.37;;;;;;;-145.18;100.00;46668.22;5032030;28;20037;-65
2022/03/16 03:24:23;;;;;;;58.93;33.30;;;;;;;-145.18;100.00;46666.25;5033933;28;20043;-66
2022/03/16 03:26:48;;;;;;;58.60;32.47;;;;;;;-145.18;100.00;46668.22;5033015;28;20171;-66
2022/03/16 03:29:14;;;;;;;53.97;29.80;;;;;;;-145.18;100.00;46668.22;5033594;28;20029;-66
2022/03/16 03:31:40;;;;;;;58.20;32.17;;;;;;;-145.18;100.00;46662.34;5033435;28;20033;-66
2022/03/16 03:34:05;;;;;;;60.78;30.67;;;;;;;-145.18;100.00;46670.16;5032080;28;20044;-66
2022/03/16 03:36:31;;;;;;;58.93;29.63;;;;;;;-145.18;100.00;46664.31;5033553;28;20030;-66
2022/03/16 03:38:56;;;;;;;57.77;31.33;;;;;;;-145.18;100.00;46668.22;5032854;28;20044;-66
2022/03/16 03:41:22;;;;;;;56.57;31.80;;;;;;;-145.18;100.00;46664.31;5033693;28;20106;-66
2022/03/16 03:43:47;;;;;;;52.83;29.03;;;;;;;-145.18;100.00;46670.16;5032763;28;20040;-66
2022/03/16 03:46:13;;;;;;;55.23;31.40;;;;;;;-145.18;100.00;46664.31;5033405;28;20042;-65
2022/03/16 03:48:38;;;;;;;51.47;30.00;;;;;;;-145.18;100.00;46668.22;5014984;28;20030;-66
2022/03/16 03:51:04;;;;;;;57.30;31.07;;;;;;;-145.18;100.00;46666.25;5033404;28;20186;-66
2022/03/16 03:53:29;;;;;;;56.10;31.53;;;;;;;-145.18;100.00;46670.16;5031700;28;20040;-66
2022/03/16 03:55:54;;;;;;;56.87;30.80;;;;;;;-145.18;100.00;46672.13;5033129;28;20076;-66
2022/03/16 03:58:20;;;;;;;56.07;32.33;;;;;;;-145.18;100.00;46666.25;5032620;28;20401;-66
2022/03/16 04:00:46;;;;;;;53.47;32.07;;;;;;;-145.18;100.00;46666.25;5033235;28;20048;-66
2022/03/16 04:03:11;;;;;;;55.83;31.37;;;;;;;-145.18;100.00;46666.25;5032319;28;20049;-66
2022/03/16 04:05:36;;;;;;;59.77;31.27;;;;;;;-145.18;100.00;46666.25;5032891;28;20065;-66
2022/03/16 04:08:02;;;;;;;49.93;28.43;;;;;;;-145.18;100.00;46670.16;5032544;28;20163;-66
2022/03/16 04:10:27;;;;;;;56.60;31.10;;;;;;;-145.18;100.00;46666.25;5032943;28;20041;-66
2022/03/16 04:12:53;;;;;;;53.07;30.00;;;;;;;-145.18;100.00;46668.22;5032093;28;20490;-68
2022/03/16 04:15:20;;;;;;;55.40;29.43;;;;;;;-145.18;100.00;46666.25;5032901;28;20083;-66
2022/03/16 04:17:46;;;;;;;59.30;32.45;;;;;;;-145.18;100.00;46666.25;5032312;28;20413;-66
2022/03/16 04:20:11;;;;;;;64.97;32.50;;;;;;;-145.18;100.00;46664.31;5032800;28;20033;-65
2022/03/16 04:22:37;;;;;;;56.37;30.27;;;;;;;-145.18;100.00;46660.41;5031576;28;20034;-66
2022/03/16 04:25:03;;;;;;;59.40;30.23;;;;;;;-145.18;100.00;46668.22;5032616;28;20029;-66
2022/03/16 04:27:29;;;;;;;59.27;32.23;;;;;;;-145.18;100.00;46670.16;5030996;28;20049;-65
2022/03/16 04:29:54;;;;;;;58.13;33.50;;;;;;;-145.18;100.00;46664.31;5031045;28;20041;-66
2022/03/16 04:32:19;;;;;;;53.03;30.17;;;;;;;-145.18;100.00;46662.34;5031976;28;20806;-66
2022/03/16 04:34:45;;;;;;;62.47;32.93;;;;;;;-145.18;100.00;46668.22;5032233;28;20029;-66
2022/03/16 04:37:10;;;;;;;56.40;30.77;;;;;;;-145.18;100.00;46660.41;5032043;28;20036;-65
2022/03/16 04:39:36;;;;;;;55.67;32.67;;;;;;;-145.18;100.00;46674.06;5032114;28;20457;-66
2022/03/16 04:42:02;;;;;;;57.80;33.67;;;;;;;-145.18;100.00;46664.31;5032250;28;20108;-66
2022/03/16 04:44:27;;;;;;;59.77;33.10;;;;;;;-145.18;100.00;46666.25;5032324;28;20474;-65
2022/03/16 04:46:52;;;;;;;64.57;34.70;;;;;;;-145.18;100.00;46668.22;5032018;28;20065;-66
2022/03/16 04:49:18;;;;;;;62.77;33.80;;;;;;;-145.18;100.00;46662.34;5031949;28;20139;-66
2022/03/16 04:51:43;;;;;;;59.70;36.97;;;;;;;-145.18;100.00;46666.25;5032234;28;20081;-66
2022/03/16 04:54:08;;;;;;;63.53;37.13;;;;;;;-145.18;100.00;46664.31;5031880;28;20599;-66
2022/03/16 04:56:35;;;;;;;61.57;36.20;;;;;;;-145.18;100.00;46672.13;5031837;28;20041;-66
2022/03/16 04:59:01;;;;;;;60.33;33.85;;;;;;;-145.18;100.00;46664.31;5031632;28;20041;-66
2022/03/16 05:01:26;;;;;;;62.22;34.72;;;;;;;-145.18;100.00;46666.25;5031866;28;20175;-66
2022/03/16 05:03:52;;;;;;;61.40;32.07;;;;;;;-145.18;100.00;46672.13;5031007;28;20532;-66
2022/03/16 05:06:17;;;;;;;63.17;34.40;;;;;;;-145.18;100.00;46668.22;5031954;28;20056;-65
2022/03/16 05:08:45;;;;;;;66.17;36.17;;;;;;;-145.18;100.00;46660.41;5031199;28;20040;-66
2022/03/16 05:11:11;;;;;;;65.10;35.28;;;;;;;-145.18;100.00;46658.44;5031577;28;20123;-66
2022/03/16 05:13:37;;;;;;;56.30;32.40;;;;;;;-145.18;100.00;46666.25;5031109;28;20029;-66
2022/03/16 05:16:03;;;;;;;68.40;39.10;;;;;;;-145.18;100.00;46668.22;5031793;28;20402;-66
2022/03/16 05:18:29;;;;;;;64.80;34.05;;;;;;;-145.18;100.00;46664.31;5031031;28;20029;-66
2022/03/16 05:20:54;;;;;;;56.53;33.73;;;;;;;-145.18;100.00;46662.34;5031523;28;20025;-66
2022/03/16 05:23:19;;;;;;;68.00;35.30;;;;;;;-145.18;100.00;46664.31;5013619;28;20548;-66
2022/03/16 05:25:45;;;;;;;63.73;37.47;;;;;;;-145.18;100.00;46664.31;5019527;28;20022;-66
2022/03/16 05:28:10;;;;;;;62.10;36.17;;;;;;;-145.18;100.00;46668.22;5030614;28;20121;-66
2022/03/16 05:30:36;;;;;;;66.10;36.80;;;;;;;-145.18;100.00;46664.31;5030976;28;20041;-66
2022/03/16 05:33:01;;;;;;;65.13;37.23;;;;;;;-145.18;100.00;46664.31;5030778;28;20064;-66
2022/03/16 05:35:28;;;;;;;64.47;35.50;;;;;;;-145.18;100.00;46664.31;5030545;28;20104;-66
2022/03/16 05:37:53;;;;;;;65.13;37.33;;;;;;;-145.18;100.00;46656.50;5030254;28;20029;-66
2022/03/16 05:40:19;;;;;;;66.50;34.77;;;;;;;-145.18;100.00;46662.34;5031006;28;20129;-66
2022/03/16 05:42:45;;;;;;;61.67;35.10;;;;;;;-145.18;100.00;46658.44;5030477;28;20025;-66
2022/03/16 05:45:10;;;;;;;61.77;32.93;;;;;;;-145.18;100.00;46664.31;5031146;28;20034;-66
2022/03/16 05:47:36;;;;;;;63.90;36.87;;;;;;;-145.18;100.00;46662.34;5017828;28;20026;-66
2022/03/16 05:50:03;;;;;;;59.90;34.40;;;;;;;-145.18;100.00;46662.34;5013655;28;20482;-66
2022/03/16 05:52:29;;;;;;;65.00;35.35;;;;;;;-145.18;100.00;46664.31;5010283;28;20773;-66
2022/03/16 05:54:56;;;;;;;62.55;37.10;;;;;;;-145.18;100.00;46662.34;5010336;28;20034;-65
2022/03/16 05:57:22;;;;;;;64.90;38.80;;;;;;;-145.18;100.00;46662.34;5010379;28;20370;-66
2022/03/16 05:59:48;;;;;;;68.00;37.80;;;;;;;-145.18;100.00;46660.41;5010783;28;20034;-66
2022/03/16 06:02:14;;;;;;;71.47;37.37;;;;;;;-145.18;100.00;46662.34;5010727;28;20044;-66
2022/03/16 06:04:40;;;;;;;67.57;39.07;;;;;;;-145.18;100.00;46660.41;5010379;28;20050;-66
2022/03/16 06:07:07;;;;;;;63.35;35.88;;;;;;;-145.18;100.00;46662.34;5010698;28;20363;-66
2022/03/16 06:09:33;;;;;;;65.28;37.15;;;;;;;-145.18;100.00;46664.31;5010409;28;20049;-66
2022/03/16 06:11:59;;;;;;;69.63;39.22;;;;;;;-145.18;100.00;46658.44;5011002;28;20036;-66
2022/03/16 06:14:25;;;;;;;65.75;35.65;;;;;;;-145.18;100.00;46664.31;5010497;28;20545;-66
2022/03/16 06:16:52;;;;;;;65.40;36.90;;;;;;;-145.18;100.00;46656.50;5010656;28;20030;-66
2022/03/16 06:19:18;;;;;;;67.95;35.45;;;;;;;-145.18;100.00;46662.34;5010368;28;20372;-66
2022/03/16 06:21:43;;;;;;;66.10;37.70;;;;;;;-145.18;100.00;46658.44;5010317;28;20038;-66
2022/03/16 06:24:09;;;;;;;62.97;37.63;;;;;;;-145.18;100.00;46660.41;5010397;28;20062;-66
2022/03/16 06:26:34;;;;;;;65.40;37.10;;;;;;;-145.18;100.00;46658.44;5009330;28;20104;-66
2022/03/16 06:29:00;;;;;;;62.93;34.73;;;;;;;-145.18;100.00;46654.53;5010338;28;20109;-66
2022/03/16 06:31:25;;;;;;;60.37;36.53;;;;;;;-145.18;100.00;46664.31;5010664;28;20041;-66
2022/03/16 06:33:50;;;;;;;65.70;36.57;;;;;;;-145.18;100.00;46662.34;5009941;28;20038;-67
2022/03/16 06:36:16;;;;;;;64.27;36.57;;;;;;;-145.18;100.00;46658.44;5010726;28;20041;-66
2022/03/16 06:38:41;;;;;;;61.03;34.63;;;;;;;-145.18;100.00;46654.53;5010185;28;20542;-66
2022/03/16 06:41:07;;;;;;;65.33;35.03;;;;;;;-145.18;100.00;46660.41;5010879;28;20038;-66
2022/03/16 06:43:32;;;;;;;56.57;33.87;;;;;;;-145.18;100.00;46662.34;5008861;28;20034;-67
2022/03/16 06:45:57;;;;;;;64.40;35.73;;;;;;;-145.18;100.00;46654.53;5023359;28;20090;-66
2022/03/16 06:48:23;;;;;;;56.27;32.77;;;;;;;-145.18;100.00;46660.41;5033908;28;20029;-66
2022/03/16 06:50:52;;;;;;;53.43;29.23;;;;;;;-145.18;100.00;46658.44;5033927;28;20064;-66
2022/03/16 06:53:18;;;;;;;56.08;31.00;;;;;;;-145.18;100.00;46662.34;5033277;28;20262;-66
2022/03/16 06:55:43;;;;;;;51.80;28.60;;;;;;;-145.18;100.00;46656.50;5033600;28;20056;-66
2022/03/16 06:58:09;;;;;;;47.10;28.10;;;;;;;-145.18;100.00;46656.50;5033641;28;20030;-66
2022/03/16 07:00:34;;;;;;;54.00;29.10;;;;;;;-145.18;100.00;46650.63;5033844;28;20048;-66
2022/03/16 07:03:02;;;;;;;46.80;28.97;;;;;;;-145.18;100.00;46658.44;5033542;28;20047;-66
2022/03/16 07:05:39;;;;;;;49.47;27.27;;;;;;;-145.18;100.00;46656.50;5032864;28;20040;-66
2022/03/16 07:08:10;;;;;;;50.37;28.27;;;;;;;-145.18;100.00;46650.63;5033215;28;20267;-66
2022/03/16 07:10:37;;;;;;;32.20;19.57;;;;;;;-145.18;100.00;46652.59;5031711;28;20293;-66
2022/03/16 07:13:03;;;;;;;49.37;27.30;;;;;;;-145.18;100.00;46652.59;5033449;28;20270;-66
2022/03/16 07:15:30;;;;;;;35.33;21.07;;;;;;;-145.18;100.00;46648.69;5034005;28;20336;-66
2022/03/16 07:17:56;;;;;;;37.80;21.83;;;;;;;-145.18;100.00;46648.69;5033009;28;20051;-66
2022/03/16 07:20:22;;;;;;;39.73;23.43;;;;;;;-145.18;100.00;46644.78;5033924;28;20301;-66
2022/03/16 07:23:01;;;;;;;36.03;18.07;;;;;;;-145.18;100.00;46642.81;5033159;28;20053;-66
2022/03/16 07:25:27;;;;;;;41.37;21.77;;;;;;;-145.18;100.00;46642.81;5033541;28;20029;-66
2022/03/16 07:27:52;;;;;;;43.57;23.37;;;;;;;-145.18;100.00;46636.94;5032997;28;20270;-66
2022/03/16 07:30:18;;;;;;;35.87;19.27;;;;;;;-145.18;100.00;46633.06;5030220;28;20043;-66
2022/03/16 07:32:44;;;;;;;33.43;20.50;;;;;;;-145.18;100.00;46633.06;5025168;28;20074;-66
2022/03/16 07:35:12;;;;;;;34.87;19.57;;;;;;;-145.18;100.00;46629.13;5011129;28;20546;-66
2022/03/16 07:37:39;;;;;;;28.83;16.73;;;;;;;-145.18;100.00;46627.19;5011647;28;20299;-66
2022/03/16 07:40:06;;;;;;;31.17;19.07;;;;;;;-145.18;100.00;46613.50;5013211;28;20801;-66
2022/03/16 07:42:31;;;;;;;29.33;17.63;;;;;;;-145.18;100.00;46593.97;5013442;28;20390;-66
2022/03/16 07:44:57;;;;;;;30.30;17.03;;;;;;;-145.18;100.00;46580.31;5013048;28;20350;-66
2022/03/16 07:47:25;;;;;;;29.17;17.50;;;;;;;-145.18;100.00;46562.72;5013686;28;20034;-66
2022/03/16 07:49:50;;;;;;;29.47;17.07;;;;;;;-145.18;100.00;46549.06;5012483;28;20065;-66
2022/03/16 07:52:16;;;;;;;30.73;17.60;;;;;;;-145.18;100.00;46545.16;5013244;28;20306;-66
2022/03/16 07:54:42;;;;;;;29.03;16.10;;;;;;;-145.18;100.00;46537.34;5013109;28;20037;-66
2022/03/16 07:57:08;;;;;;;23.67;15.53;;;;;;;-145.18;100.00;46537.34;5012970;28;20033;-66
2022/03/16 07:59:33;;;;;;;28.07;15.53;;;;;;;-145.18;100.00;46531.47;5012359;28;20034;-66
2022/03/16 08:01:59;;;;;;;25.63;14.13;;;;;;;-145.18;100.00;46525.63;5012977;28;20034;-66
2022/03/16 08:04:24;;;;;;;23.53;14.07;;;;;;;-145.18;100.00;46529.53;5012738;28;20525;-68
2022/03/16 08:06:49;;;;;;;23.00;13.60;;;;;;;-145.18;100.00;46527.56;5012851;28;20038;-66
2022/03/16 08:09:15;;;;;;;20.90;13.70;;;;;;;-145.18;100.00;46529.53;5012678;28;20037;-66
2022/03/16 08:11:40;;;;;;;20.87;12.97;;;;;;;-145.18;100.00;46535.38;5012496;28;20041;-66
2022/03/16 08:14:06;;;;;;;20.00;13.20;;;;;;;-145.18;100.00;46535.38;5031914;28;20436;-66
2022/03/16 08:16:31;;;;;;;21.97;12.83;;;;;;;-145.18;100.00;46533.44;5032584;28;20029;-66
2022/03/16 08:18:57;;;;;;;20.40;13.30;;;;;;;-145.18;100.00;46541.25;5031434;28;20155;-66
2022/03/16 08:21:22;;;;;;;20.00;12.50;;;;;;;-145.18;100.00;46539.28;5032768;28;20033;-66
2022/03/16 08:23:48;;;;;;;20.07;13.30;;;;;;;-145.18;100.00;46543.19;5031813;28;20046;-66
2022/03/16 08:26:13;;;;;;;20.67;13.47;;;;;;;-145.18;100.00;46543.19;5032347;28;20033;-66
2022/03/16 08:28:39;;;;;;;22.43;13.20;;;;;;;-145.18;100.00;46541.25;5030801;28;20066;-66
2022/03/16 08:31:05;;;;;;;25.87;13.47;;;;;;;-145.18;100.00;46541.25;5032327;28;20087;-66
2022/03/16 08:33:31;;;;;;;20.70;12.97;;;;;;;-145.18;100.00;46554.91;5031953;28;20041;-66
2022/03/16 08:35:57;;;;;;;24.13;13.20;;;;;;;-145.18;100.00;46551.00;5032038;28;20647;-66
2022/03/16 08:38:23;;;;;;;18.87;12.43;;;;;;;-145.18;100.00;46554.91;5032090;28;20061;-66
2022/03/16 08:40:48;;;;;;;23.90;14.30;;;;;;;-145.18;100.00;46551.00;5031894;28;20356;-66
2022/03/16 08:43:14;;;;;;;18.37;12.90;;;;;;;-145.18;100.00;46552.97;5031815;28;20645;-66
2022/03/16 08:45:39;;;;;;;20.53;12.40;;;;;;;-145.18;100.00;46554.91;5031902;28;20440;-66
2022/03/16 08:48:05;;;;;;;16.67;12.33;;;;;;;-145.18;100.00;46558.81;5031867;28;20030;-66
2022/03/16 08:50:30;;;;;;;22.87;12.37;;;;;;;-145.18;100.00;46562.72;5031811;28;20042;-66
2022/03/16 08:52:57;;;;;;;19.67;12.67;;;;;;;-145.18;100.00;46554.91;5031477;28;20466;-66
2022/03/16 08:55:22;;;;;;;22.20;12.30;;;;;;;-145.18;100.00;46562.72;5032107;28;20029;-66
2022/03/16 08:57:48;;;;;;;18.47;11.60;;;;;;;-145.18;100.00;46574.44;5031180;28;20759;-65
2022/03/16 09:00:15;;;;;;;20.10;11.83;;;;;;;-145.18;100.00;46582.25;5031701;28;20041;-65
2022/03/16 09:02:45;;;;;;;21.53;12.63;;;;;;;-145.18;100.00;46574.44;5031119;28;20092;-66
2022/03/16 09:05:12;;;;;;;17.50;11.77;;;;;;;-145.18;100.00;46582.25;5030406;28;20362;-66
2022/03/16 09:07:38;;;;;;;18.87;12.53;;;;;;;-145.18;100.00;46578.34;5031368;28;20266;-66
2022/03/16 09:10:06;;;;;;;21.47;13.17;;;;;;;-145.18;100.00;46578.34;5030047;28;20428;-66
2022/03/16 09:12:31;;;;;;;17.90;12.30;;;;;;;-145.18;100.00;46574.44;5030348;28;20380;-65
2022/03/16 09:14:57;;;;;;;22.73;13.50;;;;;;;-145.18;100.00;46588.13;5030955;28;20763;-66
2022/03/16 09:17:22;;;;;;;18.27;12.53;;;;;;;-145.18;100.00;46586.16;5031718;28;20037;-65
2022/03/16 09:19:48;;;;;;;16.53;11.70;;;;;;;-145.18;100.00;46578.34;5029914;28;20077;-66
2022/03/16 09:22:14;;;;;;;19.57;12.97;;;;;;;-145.18;100.00;46584.22;5031227;28;20038;-65
2022/03/16 09:24:39;;;;;;;16.97;12.83;;;;;;;-145.18;100.00;46590.06;5030816;28;20750;-66
2022/03/16 09:27:07;;;;;;;21.13;12.77;;;;;;;-145.18;100.00;46570.53;5031388;28;20121;-66
2022/03/16 09:29:33;;;;;;;17.00;11.87;;;;;;;-145.18;100.00;46593.97;5030748;28;20488;-66
2022/03/16 09:31:58;;;;;;;19.50;12.90;;;;;;;-145.18;100.00;46586.16;5031201;28;20288;-66
2022/03/16 09:34:24;;;;;;;19.60;12.63;;;;;;;-145.18;100.00;46588.13;5030766;28;20042;-66
2022/03/16 09:36:49;;;;;;;18.70;12.00;;;;;;;-145.18;100.00;46582.25;5030911;28;20110;-66
2022/03/16 09:39:15;;;;;;;20.03;12.20;;;;;;;-145.18;100.00;46607.66;5029369;28;20503;-65
2022/03/16 09:41:40;;;;;;;18.80;12.07;;;;;;;-145.18;100.00;46601.78;5029536;28;20525;-66
2022/03/16 09:44:06;;;;;;;18.43;12.70;;;;;;;-145.18;100.00;46590.06;5030600;28;20075;-66
2022/03/16 09:46:36;;;;;;;17.57;11.67;;;;;;;-145.18;100.00;46611.56;5031027;28;20128;-66
2022/03/16 09:49:04;;;;;;;17.00;11.80;;;;;;;-145.18;100.00;46621.31;5030577;28;20108;-66
2022/03/16 09:51:34;;;;;;;16.33;11.97;;;;;;;-145.18;100.00;46611.56;5030972;28;20769;-66
2022/03/16 09:54:00;;;;;;;15.70;11.73;;;;;;;-145.18;100.00;46588.13;5030702;28;20626;-66
2022/03/16 09:56:26;;;;;;;17.37;11.87;;;;;;;-145.18;100.00;46617.41;5030704;28;20274;-66
2022/03/16 09:58:51;;;;;;;15.90;11.23;;;;;;;-145.18;100.00;46631.09;5030153;28;20044;-66
2022/03/16 10:01:18;;;;;;;19.57;12.80;;;;;;;-145.18;100.00;46627.19;5030764;28;20034;-66
2022/03/16 10:03:48;;;;;;;17.43;12.07;;;;;;;-145.18;100.00;46644.78;5029851;28;20054;-66
2022/03/16 10:06:15;;;;;;;17.40;11.60;;;;;;;-145.18;100.00;46631.09;5030612;28;20333;-66
2022/03/16 10:08:40;;;;;;;20.50;12.43;;;;;;;-145.18;100.00;46644.78;5029412;28;20266;-66
2022/03/16 10:13:57;;;;;;;17.33;11.93;;;;;;;-145.18;100.00;46611.56;5029649;28;20090;-66
2022/03/16 10:16:23;;;;;;;18.10;12.20;;;;;;;-145.18;100.00;46629.13;5030223;28;20638;-66
2022/03/16 10:18:55;;;;;;;16.33;11.93;;;;;;;-145.18;100.00;46640.88;5028619;28;20275;-66
2022/03/16 10:21:21;;;;;;;18.47;11.33;;;;;;;-145.18;100.00;46631.09;5030017;28;20628;-66
2022/03/16 10:23:47;;;;;;;15.40;11.53;;;;;;;-145.18;100.00;46629.13;5029632;28;20282;-66
2022/03/16 10:26:19;;;;;;;15.97;11.27;;;;;;;-145.18;100.00;46648.69;5030391;28;20331;-66
2022/03/16 10:28:48;;;;;;;16.77;11.33;;;;;;;-145.18;100.00;46629.13;5029256;28;20029;-66
2022/03/16 10:31:18;;;;;;;20.20;12.10;;;;;;;-145.18;100.00;46648.69;5030055;28;20145;-66
2022/03/16 10:33:53;;;;;;;21.43;11.83;;;;;;;-145.18;100.00;46679.94;5028464;28;20049;-66
2022/03/16 10:36:21;;;;;;;20.52;11.07;;;;;;;-145.18;100.00;46625.22;5030329;28;20474;-66
2022/03/16 10:38:58;;;;;;;21.67;12.27;;;;;;;-145.18;100.00;46646.72;5029764;28;20033;-66
2022/03/16 10:47:19;;;;;;;15.57;11.00;;;;;;;-145.18;100.00;46629.13;5029726;28;20468;-66
2022/03/16 10:49:48;;;;;;;20.40;12.47;;;;;;;-145.18;100.00;46635.00;5029486;28;20082;-66
2022/03/16 10:52:17;;;;;;;18.77;11.30;;;;;;;-145.18;100.00;46797.13;5029388;28;20032;-66
2022/03/16 10:54:44;;;;;;;15.03;10.47;;;;;;;-145.18;100.00;47002.25;5029407;28;20029;-66
2022/03/16 10:57:12;;;;;;;14.60;10.53;;;;;;;-145.18;100.00;47166.34;5029245;28;20038;-66
2022/03/16 10:59:38;;;;;;;17.90;11.23;;;;;;;-145.18;100.00;47238.63;5029423;28;20498;-66